Time;durP1;ratioP1;P1;durP2;ratioP2;P2;SDS_P1;SDS_P2;PMS_P1;PMS_P2;Temp;Humidity;BMP_temperature;BMP_pressure;BME280_temperature;BME280_humidity;BME280_pressure;Samples;Min_cycle;Max_cycle;Signal;HPM_P1;HPM_P2
2022/03/22 00:01:46;;;;;;;16.63;11.10;;;;;;;4.95;60.05;102322.05;1712415;83;21135;-70
2022/03/22 00:04:14;;;;;;;20.27;11.83;;;;;;;4.88;60.33;102320.31;1689002;84;21130;-69
2022/03/22 00:06:44;;;;;;;21.30;12.83;;;;;;;4.82;60.66;102314.09;1703607;83;21056;-71
2022/03/22 00:09:12;;;;;;;18.00;10.43;;;;;;;4.70;60.78;102317.09;1698067;84;21681;-72
2022/03/22 00:11:39;;;;;;;16.57;12.13;;;;;;;4.59;61.25;102317.78;1712736;83;21046;-71
2022/03/22 00:14:08;;;;;;;18.50;11.80;;;;;;;4.47;61.60;102323.41;1695716;84;21098;-70
2022/03/22 00:16:39;;;;;;;18.00;11.90;;;;;;;4.37;61.89;102318.36;1673977;84;21048;-70
2022/03/22 00:19:07;;;;;;;21.50;11.10;;;;;;;4.35;61.99;102326.86;1639070;85;21128;-71
2022/03/22 00:21:35;;;;;;;21.50;11.67;;;;;;;4.38;62.14;102316.08;1652020;85;21086;-70
2022/03/22 00:24:03;;;;;;;17.00;11.30;;;;;;;4.38;62.38;102309.95;1651532;85;21084;-72
2022/03/22 00:26:30;;;;;;;16.57;11.43;;;;;;;4.38;62.52;102312.11;1653823;85;21084;-71
2022/03/22 00:28:58;;;;;;;18.00;11.23;;;;;;;4.36;62.63;102306.57;1648023;86;21080;-70
2022/03/22 00:31:28;;;;;;;18.37;11.27;;;;;;;4.34;62.85;102305.34;1655170;85;21180;-71
2022/03/22 00:33:55;;;;;;;21.73;11.30;;;;;;;3.95;62.98;102243.61;1668083;84;21077;-71
2022/03/22 00:36:23;;;;;;;17.00;10.50;;;;;;;4.33;63.00;102301.48;1642955;85;21101;-71
2022/03/22 00:38:50;;;;;;;14.13;10.53;;;;;;;4.35;63.14;102303.09;1639717;87;21134;-70
2022/03/22 00:41:19;;;;;;;15.63;11.20;;;;;;;4.35;63.26;102296.49;1630488;85;21646;-69
2022/03/22 00:43:50;;;;;;;19.03;10.90;;;;;;;4.34;63.34;102304.02;1636157;85;21631;-71
2022/03/22 00:46:17;;;;;;;18.20;10.30;;;;;;;4.32;63.86;102293.20;1644972;86;21089;-70
2022/03/22 00:48:47;;;;;;;11.43;8.37;;;;;;;4.27;64.32;102288.20;1648821;85;21131;-71
2022/03/22 00:51:13;;;;;;;14.07;9.10;;;;;;;4.22;65.05;102296.88;1641535;86;21096;-72
2022/03/22 00:53:40;;;;;;;16.07;7.93;;;;;;;4.13;64.97;102286.95;1640872;86;21072;-71
2022/03/22 00:56:08;;;;;;;17.03;8.63;;;;;;;4.06;64.96;102295.71;1667196;84;22154;-71
2022/03/22 00:58:35;;;;;;;15.77;7.37;;;;;;;4.08;66.36;102288.55;1688492;84;21070;-70
2022/03/22 01:01:04;;;;;;;12.77;8.60;;;;;;;4.10;65.70;102295.88;1686443;85;21413;-71
2022/03/22 01:03:31;;;;;;;16.37;8.53;;;;;;;4.13;65.67;102287.78;1686185;84;21054;-70
2022/03/22 01:06:01;;;;;;;12.67;6.93;;;;;;;4.16;65.82;102290.69;1679059;84;21147;-71
2022/03/22 01:08:31;;;;;;;14.97;8.03;;;;;;;4.20;65.78;102287.77;1674668;85;21062;-71
2022/03/22 01:10:59;;;;;;;15.57;7.47;;;;;;;4.25;65.69;102288.78;1684886;85;21655;-70
2022/03/22 01:13:30;;;;;;;15.00;7.87;;;;;;;4.29;65.66;102291.59;1684935;83;20996;-71
2022/03/22 01:15:58;;;;;;;9.67;7.63;;;;;;;4.31;65.64;102294.13;1678452;85;21134;-71
2022/03/22 01:18:25;;;;;;;13.03;8.13;;;;;;;4.32;65.68;102298.00;1680399;84;21077;-71
2022/03/22 01:20:52;;;;;;;13.83;6.77;;;;;;;4.32;65.76;102298.00;1688221;84;21059;-71
2022/03/22 01:23:20;;;;;;;11.23;8.20;;;;;;;4.30;65.80;102297.25;1677947;84;22349;-73
2022/03/22 01:25:48;;;;;;;10.30;6.80;;;;;;;4.33;65.77;102294.87;1686422;84;21481;-71
2022/03/22 01:28:16;;;;;;;10.77;7.63;;;;;;;4.37;65.80;102296.37;1678289;85;21107;-70
2022/03/22 01:30:47;;;;;;;16.07;7.60;;;;;;;4.42;65.65;102296.44;1673775;84;21118;-71
2022/03/22 01:33:15;;;;;;;12.33;6.80;;;;;;;4.47;65.57;102299.64;1677916;84;21091;-70
2022/03/22 01:35:43;;;;;;;11.73;7.23;;;;;;;4.51;65.67;102299.45;1681367;83;21477;-73
2022/03/22 01:38:11;;;;;;;14.20;7.97;;;;;;;4.47;65.70;102297.00;1687655;85;21127;-71
2022/03/22 01:40:40;;;;;;;10.87;7.33;;;;;;;4.44;65.68;102305.11;1689342;83;21575;-70
2022/03/22 01:43:07;;;;;;;13.47;7.57;;;;;;;4.41;65.87;102297.41;1683176;84;21039;-70
2022/03/22 01:45:35;;;;;;;17.43;8.50;;;;;;;4.42;66.00;102306.16;1678849;85;21555;-70
2022/03/22 01:48:04;;;;;;;13.00;8.23;;;;;;;4.42;65.94;102307.48;1691313;85;21064;-71
2022/03/22 01:50:31;;;;;;;14.83;7.70;;;;;;;4.41;65.83;102308.45;1689197;83;21159;-72
2022/03/22 01:52:59;;;;;;;10.67;7.20;;;;;;;4.38;65.87;102304.19;1681831;83;21050;-70
2022/03/22 01:55:27;;;;;;;17.43;9.53;;;;;;;4.35;66.04;102312.78;1686849;84;21000;-71
2022/03/22 01:57:56;;;;;;;13.47;9.13;;;;;;;4.24;65.77;102312.18;1680530;84;20984;-71
2022/03/22 02:00:24;;;;;;;12.40;8.60;;;;;;;4.13;66.00;102307.58;1683749;83;21910;-71
2022/03/22 02:05:51;;;;;;;17.40;9.03;;;;;;;4.05;66.29;102301.47;1681006;84;21553;-70
2022/03/22 02:08:24;;;;;;;16.53;8.73;;;;;;;4.01;66.32;102303.94;1681710;85;21047;-70
2022/03/22 02:10:55;;;;;;;11.97;7.83;;;;;;;3.96;66.44;102307.33;1679540;85;20997;-70
2022/03/22 02:13:22;;;;;;;13.53;7.63;;;;;;;3.95;66.74;102298.19;1689261;85;21558;-71
2022/03/22 02:15:52;;;;;;;;;;;;;;;3.92;67.11;102297.92;1685766;84;21047;-70
2022/03/22 02:18:21;;;;;;;11.70;7.63;;;;;;;3.88;67.47;102305.17;1672786;84;20420;-70
2022/03/22 02:20:49;;;;;;;15.43;8.30;;;;;;;3.79;67.89;102308.87;1671986;85;21048;-70
2022/03/22 02:23:45;;;;;;;12.40;7.20;;;;;;;3.80;68.20;102305.27;1691003;84;21158;-71
2022/03/22 02:26:13;;;;;;;12.97;8.10;;;;;;;3.81;68.31;102303.86;1684591;84;21032;-72
2022/03/22 02:28:42;;;;;;;11.57;7.93;;;;;;;3.80;68.48;102304.79;1685761;84;21075;-70
2022/03/22 02:31:08;;;;;;;10.43;6.87;;;;;;;3.80;68.67;102307.42;1677315;85;21295;-70
2022/03/22 02:33:43;;;;;;;13.63;8.43;;;;;;;3.81;68.89;102313.58;1685173;85;21040;-70
2022/03/22 02:36:10;;;;;;;14.17;7.53;;;;;;;3.80;68.94;102319.30;1691133;85;21099;-71
2022/03/22 02:38:39;;;;;;;13.53;7.23;;;;;;;3.81;68.93;102317.05;1688380;84;21103;-70
2022/03/22 02:41:08;;;;;;;18.07;7.87;;;;;;;3.85;69.13;102317.23;1689512;83;21118;-70
2022/03/22 02:43:35;;;;;;;13.87;7.70;;;;;;;3.90;69.14;102320.44;1678676;84;21078;-72
2022/03/22 02:46:03;;;;;;;11.83;6.83;;;;;;;3.97;69.08;102320.04;1689385;85;21686;-70
2022/03/22 02:48:30;;;;;;;12.77;6.80;;;;;;;4.01;69.08;102314.94;1680971;84;21477;-69
2022/03/22 02:51:00;;;;;;;10.90;7.90;;;;;;;3.97;69.20;102321.36;1690470;85;21127;-71
2022/03/22 02:53:27;;;;;;;14.87;7.67;;;;;;;3.93;69.31;102318.06;1667468;83;21163;-71
2022/03/22 02:55:54;;;;;;;16.42;8.85;;;;;;;3.89;69.50;102309.97;1670909;84;21027;-71
2022/03/22 02:58:21;;;;;;;12.97;7.67;;;;;;;3.83;69.73;102315.64;1682707;85;21535;-71
2022/03/22 03:00:48;;;;;;;13.90;8.77;;;;;;;3.78;70.11;102313.75;1684433;85;21638;-70
2022/03/22 03:03:17;;;;;;;16.20;7.37;;;;;;;3.36;70.28;102250.87;1684594;84;21154;-72
2022/03/22 03:05:45;;;;;;;13.03;8.57;;;;;;;3.69;70.60;102314.71;1689393;85;21661;-72
2022/03/22 03:08:12;;;;;;;12.17;6.73;;;;;;;3.69;70.96;102309.44;1680523;84;21001;-71
2022/03/22 03:10:41;;;;;;;10.73;7.47;;;;;;;3.71;71.33;102313.27;1678826;84;21483;-70
2022/03/22 03:13:08;;;;;;;14.70;7.43;;;;;;;3.68;71.33;102314.32;1676032;84;21032;-70
2022/03/22 03:15:35;;;;;;;11.83;7.73;;;;;;;3.64;71.74;102314.62;1688872;85;21870;-72
2022/03/22 03:18:02;;;;;;;;;;;;;;;3.58;72.47;102322.44;1690664;84;21062;-71
2022/03/22 03:20:30;;;;;;;13.30;8.57;;;;;;;3.54;72.19;102324.86;1688559;83;20796;-71
2022/03/22 03:22:57;;;;;;;14.10;9.07;;;;;;;3.41;72.39;102327.42;1689898;84;21114;-71
2022/03/22 03:25:25;;;;;;;15.43;8.37;;;;;;;3.42;72.62;102322.50;1689864;84;21083;-71
2022/03/22 03:27:52;;;;;;;18.20;8.30;;;;;;;3.49;72.42;102321.67;1674354;83;21003;-70
2022/03/22 03:30:20;;;;;;;18.60;8.70;;;;;;;3.51;72.93;102321.11;1684767;83;21513;-70
2022/03/22 03:32:47;;;;;;;15.27;8.30;;;;;;;3.49;72.73;102328.27;1681630;85;21048;-71
2022/03/22 03:38:13;;;;;;;12.50;8.07;;;;;;;3.55;72.78;102325.73;1788231;79;22171;-70
2022/03/22 03:43:25;;;;;;;16.70;8.23;;;;;;;3.51;72.88;102339.09;1745744;80;21093;-70
2022/03/22 03:48:38;;;;;;;14.03;7.80;;;;;;;3.46;72.84;102342.47;1721938;81;21075;-71
2022/03/22 03:51:05;;;;;;;12.77;8.23;;;;;;;3.43;72.98;102342.67;1721065;81;21048;-71
2022/03/22 03:53:33;;;;;;;14.90;7.73;;;;;;;3.41;72.88;102344.55;1723313;81;21547;-70
2022/03/22 03:56:00;;;;;;;11.57;7.60;;;;;;;3.44;73.35;102344.83;1738471;80;21005;-72
2022/03/22 03:58:28;;;;;;;13.07;8.47;;;;;;;3.41;73.07;102344.55;1750277;80;21021;-69
2022/03/22 04:00:54;;;;;;;18.17;8.95;;;;;;;3.41;73.10;102341.91;1754791;80;21075;-70
2022/03/22 04:03:24;;;;;;;;;;;;;;;3.43;73.12;102346.62;1764957;80;21465;-69
2022/03/22 04:05:52;;;;;;;16.43;9.83;;;;;;;3.43;72.94;102353.70;1742164;80;20183;-69
2022/03/22 04:08:19;;;;;;;15.60;9.00;;;;;;;3.36;73.15;102355.00;1758158;80;21706;-71
2022/03/22 04:10:46;;;;;;;15.70;9.60;;;;;;;3.32;73.30;102349.05;1763630;80;21319;-71
2022/03/22 04:13:14;;;;;;;14.37;9.90;;;;;;;3.26;73.12;102348.95;1711088;80;21002;-71
2022/03/22 04:15:41;;;;;;;15.93;9.50;;;;;;;3.25;73.33;102356.95;1724461;81;21061;-72
2022/03/22 04:18:09;;;;;;;15.20;8.93;;;;;;;3.29;73.43;102354.50;1718300;81;21520;-70
2022/03/22 04:20:36;;;;;;;;;;;;;;;3.45;73.25;102356.61;1705807;81;20997;-70
2022/03/22 04:23:03;;;;;;;16.97;8.73;;;;;;;3.70;73.51;102349.36;1710545;81;20115;-70
2022/03/22 04:25:30;;;;;;;13.73;9.30;;;;;;;4.12;73.15;102358.66;1717376;81;20990;-70
2022/03/22 04:33:28;;;;;;;15.27;9.30;;;;;;;5.98;67.77;102363.47;1706007;81;21088;-71
2022/03/22 04:35:55;;;;;;;13.50;8.47;;;;;;;6.83;64.42;102363.48;1713438;81;21104;-73
2022/03/22 04:38:22;;;;;;;12.73;8.23;;;;;;;7.53;62.36;102367.05;1713751;81;21539;-71
2022/03/22 04:40:50;;;;;;;13.70;8.83;;;;;;;8.25;60.25;102369.84;1716782;82;21076;-73
2022/03/22 04:43:20;;;;;;;14.20;8.37;;;;;;;8.80;56.00;102368.97;1710036;82;21101;-71
2022/03/22 04:45:50;;;;;;;16.73;9.00;;;;;;;8.93;54.88;102367.84;1689681;82;21157;-71
2022/03/22 04:48:17;;;;;;;14.13;8.47;;;;;;;9.15;55.34;102367.37;1681794;83;21572;-72
2022/03/22 04:50:45;;;;;;;14.00;9.00;;;;;;;9.58;53.44;102369.04;1690300;83;21108;-71
2022/03/22 04:58:48;;;;;;;15.23;9.20;;;;;;;10.58;49.50;102376.77;1674207;83;21572;-71
2022/03/22 05:01:14;;;;;;;12.60;8.33;;;;;;;10.58;49.28;102367.44;1635004;85;21052;-73
2022/03/22 05:03:43;;;;;;;18.47;9.37;;;;;;;10.60;49.37;102362.80;1645470;84;21154;-71
2022/03/22 05:06:25;;;;;;;16.93;8.97;;;;;;;10.79;48.43;102375.31;1667722;84;21128;-70
2022/03/22 05:08:56;;;;;;;11.87;7.97;;;;;;;10.80;47.49;102371.67;1670609;84;21087;-72
2022/03/22 05:11:25;;;;;;;16.93;8.43;;;;;;;10.67;48.12;102364.77;1661451;84;21120;-71
2022/03/22 05:13:54;;;;;;;11.87;8.30;;;;;;;10.72;47.94;102367.04;1672386;84;21100;-74
2022/03/22 05:16:21;;;;;;;13.93;8.40;;;;;;;10.82;47.48;102363.87;1663966;84;21159;-72
2022/03/22 05:18:50;;;;;;;14.93;9.43;;;;;;;10.76;47.54;102375.11;1660093;84;21540;-71
2022/03/22 05:21:20;;;;;;;15.60;8.90;;;;;;;10.89;47.08;102369.50;1669426;84;21116;-72
2022/03/22 05:23:48;;;;;;;17.90;9.33;;;;;;;11.02;47.15;102383.39;1664894;83;21049;-72
2022/03/22 05:26:15;;;;;;;10.47;7.23;;;;;;;11.32;46.39;102385.55;1661128;83;21089;-72
2022/03/22 05:28:44;;;;;;;12.20;8.87;;;;;;;11.72;45.59;102388.97;1672583;83;21647;-72
2022/03/22 05:31:14;;;;;;;17.27;8.70;;;;;;;12.11;44.38;102383.47;1684484;83;21354;-72
2022/03/22 05:33:42;;;;;;;11.83;7.62;;;;;;;12.43;43.62;102385.20;1672449;83;21152;-72
2022/03/22 05:36:28;;;;;;;;;;;;;;;12.64;43.10;102383.58;1672075;84;21120;-72
2022/03/22 05:38:56;;;;;;;16.25;8.00;;;;;;;13.02;41.97;102386.94;1679122;84;20204;-72
2022/03/22 05:41:24;;;;;;;15.03;9.15;;;;;;;13.02;41.47;102396.31;1681151;84;21116;-71
2022/03/22 05:43:50;;;;;;;14.13;8.45;;;;;;;13.15;41.01;102405.80;1669457;84;21091;-72
2022/03/22 05:46:18;;;;;;;14.18;8.50;;;;;;;13.36;41.01;102394.27;1682114;83;21307;-73
2022/03/22 05:48:49;;;;;;;11.55;8.15;;;;;;;13.73;40.19;102401.69;1682681;84;21063;-72
2022/03/22 05:51:17;;;;;;;15.03;8.05;;;;;;;13.89;39.09;102404.47;1679739;84;21042;-73
2022/03/22 05:53:45;;;;;;;13.62;8.55;;;;;;;13.91;38.94;102402.47;1681195;84;21038;-71
2022/03/22 05:56:13;;;;;;;13.65;8.05;;;;;;;14.03;39.18;102401.67;1680443;84;22261;-72
2022/03/22 05:58:40;;;;;;;11.90;8.08;;;;;;;14.33;38.38;102404.30;1680376;84;21013;-71
2022/03/22 06:01:07;;;;;;;15.75;9.75;;;;;;;14.59;37.90;102406.09;1681202;84;21547;-73
2022/03/22 06:03:34;;;;;;;15.70;9.30;;;;;;;14.87;37.38;102402.62;1677671;84;21080;-72
2022/03/22 06:06:01;;;;;;;9.53;8.28;;;;;;;15.17;36.72;102405.66;1681203;84;20988;-72
2022/03/22 06:08:29;;;;;;;13.68;10.30;;;;;;;15.21;36.13;102409.68;1681590;84;21052;-73
2022/03/22 06:10:57;;;;;;;18.70;10.75;;;;;;;15.13;36.32;102407.84;1681829;84;21071;-74
2022/03/22 06:13:25;;;;;;;14.90;10.88;;;;;;;15.25;35.74;102405.64;1675092;83;21080;-71
2022/03/22 06:15:55;;;;;;;15.40;9.53;;;;;;;15.19;35.69;102412.53;1671711;84;21107;-72
2022/03/22 06:18:23;;;;;;;15.95;10.15;;;;;;;15.11;36.09;102412.54;1678315;84;21671;-72
2022/03/22 06:20:50;;;;;;;13.88;10.03;;;;;;;15.14;35.69;102408.67;1667816;84;21081;-72
2022/03/22 06:23:19;;;;;;;16.12;10.03;;;;;;;15.28;35.51;102414.72;1681204;83;21203;-73
2022/03/22 06:25:46;;;;;;;15.58;9.55;;;;;;;15.46;34.91;102417.20;1690794;83;21105;-73
2022/03/22 06:28:14;;;;;;;15.10;10.10;;;;;;;15.45;34.75;102428.16;1683746;83;21444;-69
2022/03/22 06:30:42;;;;;;;14.18;11.55;;;;;;;15.57;34.68;102427.61;1664629;85;21413;-69
2022/03/22 06:33:17;;;;;;;16.23;11.55;;;;;;;15.82;34.25;102425.41;1650045;85;21134;-70
2022/03/22 06:35:47;;;;;;;18.57;10.58;;;;;;;15.75;34.14;102430.66;1636251;85;21065;-70
2022/03/22 06:38:15;;;;;;;15.58;11.35;;;;;;;15.63;34.46;102431.46;1640355;85;21648;-70
2022/03/22 06:40:43;;;;;;;14.75;10.93;;;;;;;15.87;34.22;102434.64;1644482;85;21172;-71
2022/03/22 06:43:14;;;;;;;15.40;10.18;;;;;;;16.06;33.70;102438.78;1661008;85;21050;-71
2022/03/22 06:45:41;;;;;;;19.75;11.03;;;;;;;16.08;33.38;102435.41;1650346;85;21183;-67
2022/03/22 06:48:08;;;;;;;15.20;10.43;;;;;;;15.66;33.95;102439.20;1647379;85;21109;-71
2022/03/22 06:50:38;;;;;;;16.07;10.38;;;;;;;14.92;34.49;102439.22;1635398;86;21148;-68
2022/03/22 06:53:07;;;;;;;15.55;9.83;;;;;;;13.96;35.87;102440.37;1648680;85;21114;-68
2022/03/22 06:55:34;;;;;;;13.90;10.32;;;;;;;13.05;37.49;102441.52;1646933;85;21053;-67
2022/03/22 06:58:02;;;;;;;17.50;11.33;;;;;;;12.18;38.84;102444.72;1659097;85;21561;-68
2022/03/22 07:00:31;;;;;;;14.80;9.83;;;;;;;11.47;40.25;102446.86;1654526;85;21081;-69
2022/03/22 07:03:00;;;;;;;19.23;11.00;;;;;;;11.08;41.27;102449.55;1660149;85;21021;-68
2022/03/22 07:05:29;;;;;;;17.07;11.53;;;;;;;10.74;42.13;102454.42;1635968;85;21068;-68
2022/03/22 07:07:56;;;;;;;16.93;10.90;;;;;;;10.50;42.84;102452.12;1650901;85;21389;-71
2022/03/22 07:10:28;;;;;;;16.70;10.80;;;;;;;9.94;43.07;102397.45;1650985;85;21062;-72
2022/03/22 07:13:05;;;;;;;17.83;9.63;;;;;;;10.07;43.88;102462.51;1668224;85;21061;-68
2022/03/22 07:15:36;;;;;;;13.87;10.03;;;;;;;9.98;44.26;102457.48;1666111;85;21557;-67
2022/03/22 07:18:11;;;;;;;13.87;10.13;;;;;;;9.94;44.14;102459.59;1664159;85;21046;-69
2022/03/22 07:20:38;;;;;;;15.43;10.07;;;;;;;9.84;44.23;102458.67;1656950;85;21024;-67
2022/03/22 07:23:06;;;;;;;19.33;10.30;;;;;;;9.75;44.76;102456.30;1653939;85;21066;-68
2022/03/22 07:25:48;;;;;;;21.37;11.87;;;;;;;9.73;44.91;102456.92;1688519;83;21589;-68
2022/03/22 07:28:15;;;;;;;20.43;11.47;;;;;;;9.73;44.84;102454.26;1690300;83;21051;-69
2022/03/22 07:30:43;;;;;;;16.53;9.47;;;;;;;9.74;45.00;102453.80;1687317;83;21062;-68
2022/03/22 07:33:09;;;;;;;15.13;10.00;;;;;;;9.75;44.95;102452.30;1696402;83;21019;-68
2022/03/22 07:35:38;;;;;;;15.37;9.73;;;;;;;9.75;44.75;102448.81;1661014;85;21014;-72
2022/03/22 07:38:06;;;;;;;17.13;10.27;;;;;;;9.71;44.63;102450.89;1657827;85;21014;-68
2022/03/22 07:40:34;;;;;;;11.73;9.00;;;;;;;9.70;44.81;102451.88;1660367;85;21042;-67
2022/03/22 07:43:01;;;;;;;16.87;9.23;;;;;;;9.75;45.02;102449.64;1654596;85;21143;-66
2022/03/22 07:45:28;;;;;;;17.20;9.97;;;;;;;9.78;45.15;102452.55;1663661;85;21176;-68
2022/03/22 07:47:56;;;;;;;12.30;7.97;;;;;;;9.81;45.07;102448.77;1669765;85;21117;-67
2022/03/22 07:53:10;;;;;;;17.87;10.13;;;;;;;9.89;44.67;102448.48;1668116;85;21133;-68
2022/03/22 07:55:43;;;;;;;16.13;10.17;;;;;;;9.97;44.60;102453.14;1665502;85;21058;-69
2022/03/22 07:58:11;;;;;;;16.67;9.53;;;;;;;10.03;44.63;102444.61;1665535;84;21061;-68
2022/03/22 08:00:41;;;;;;;18.03;11.90;;;;;;;10.13;44.67;102443.31;1670011;85;21905;-73
2022/03/22 08:03:15;;;;;;;23.50;15.03;;;;;;;10.21;44.60;102446.17;1664958;85;20995;-67
2022/03/22 08:05:41;;;;;;;28.70;17.90;;;;;;;10.24;44.46;102439.22;1667017;85;21028;-70
2022/03/22 08:08:09;;;;;;;36.43;20.43;;;;;;;10.32;44.45;102450.11;1660564;85;21854;-67
2022/03/22 08:10:36;;;;;;;33.37;17.70;;;;;;;10.37;44.55;102446.19;1666163;85;21091;-68
2022/03/22 08:13:06;;;;;;;26.93;16.93;;;;;;;10.37;44.33;102451.02;1683918;85;21068;-71
2022/03/22 08:15:33;;;;;;;27.27;16.77;;;;;;;10.37;44.18;102444.36;1691570;83;21022;-71
2022/03/22 08:18:00;;;;;;;26.57;16.20;;;;;;;10.43;44.52;102437.64;1691593;85;21120;-70
2022/03/22 08:20:30;;;;;;;22.23;15.83;;;;;;;10.57;44.60;102437.27;1689396;85;21034;-68
2022/03/22 08:23:04;;;;;;;21.47;13.77;;;;;;;10.70;44.60;102435.19;1682398;85;22204;-67
2022/03/22 08:25:37;;;;;;;22.90;13.73;;;;;;;10.80;44.41;102439.70;1687054;85;21098;-68
2022/03/22 08:28:09;;;;;;;16.07;11.73;;;;;;;10.81;43.96;102436.03;1691003;85;21091;-67
2022/03/22 08:30:38;;;;;;;17.90;11.93;;;;;;;10.80;43.76;102431.19;1690039;85;21041;-72
2022/03/22 08:33:11;;;;;;;17.60;12.00;;;;;;;10.82;43.83;102434.56;1693343;83;21002;-70
2022/03/22 08:35:45;;;;;;;18.63;12.87;;;;;;;10.89;43.86;102429.03;1692188;85;20986;-70
2022/03/22 08:38:16;;;;;;;18.20;11.87;;;;;;;11.00;43.43;102431.20;1692816;85;21552;-69
2022/03/22 08:40:44;;;;;;;18.37;11.53;;;;;;;11.07;43.36;102431.83;1692939;84;21025;-71
2022/03/22 08:43:11;;;;;;;16.80;9.87;;;;;;;11.19;43.06;102433.02;1689856;85;21045;-69
2022/03/22 08:45:39;;;;;;;15.10;9.77;;;;;;;11.32;42.36;102427.40;1654016;84;21129;-69
2022/03/22 08:48:10;;;;;;;16.87;10.70;;;;;;;11.41;41.77;102428.72;1628837;86;21076;-69
2022/03/22 08:50:42;;;;;;;14.10;8.30;;;;;;;11.46;41.55;102423.80;1633755;86;21126;-68
2022/03/22 08:53:11;;;;;;;17.87;8.63;;;;;;;11.52;41.19;102416.21;1629998;86;21050;-69
2022/03/22 08:55:38;;;;;;;12.40;8.57;;;;;;;11.60;41.01;102420.33;1647853;84;21130;-71
2022/03/22 08:58:06;;;;;;;14.60;8.55;;;;;;;11.64;40.66;102422.59;1689529;83;21633;-73
2022/03/22 09:00:34;;;;;;;11.13;7.93;;;;;;;11.68;40.35;102425.31;1686966;83;21115;-69
2022/03/22 09:03:05;;;;;;;14.67;8.43;;;;;;;11.76;40.05;102417.91;1690200;83;21081;-71
2022/03/22 09:08:20;;;;;;;8.13;5.80;;;;;;;11.92;39.06;102415.14;1693362;83;21565;-70
2022/03/22 09:10:50;;;;;;;9.53;7.07;;;;;;;11.96;38.47;102423.20;1691134;83;21481;-68
2022/03/22 09:13:19;;;;;;;11.67;5.97;;;;;;;11.95;38.62;102414.35;1659077;85;21400;-71
2022/03/22 09:15:51;;;;;;;9.70;6.07;;;;;;;11.96;38.58;102416.52;1660168;86;21053;-69
2022/03/22 09:18:18;;;;;;;10.13;5.95;;;;;;;11.99;38.42;102413.57;1657462;86;21065;-69
2022/03/22 09:20:48;;;;;;;9.47;6.00;;;;;;;12.01;38.32;102414.27;1660663;86;22282;-73
2022/03/22 09:23:17;;;;;;;9.47;5.80;;;;;;;12.04;38.29;102401.45;1657534;84;22441;-74
2022/03/22 09:25:46;;;;;;;11.97;6.70;;;;;;;12.12;37.89;102398.53;1653707;86;21006;-69
2022/03/22 09:28:17;;;;;;;15.20;8.97;;;;;;;12.18;37.72;102405.45;1653206;86;21066;-68
2022/03/22 09:30:48;;;;;;;9.45;6.05;;;;;;;12.25;37.62;102403.88;1656661;86;21650;-67
2022/03/22 09:33:17;;;;;;;8.43;5.13;;;;;;;12.37;37.38;102405.01;1656005;85;21062;-69
2022/03/22 09:35:44;;;;;;;8.33;5.70;;;;;;;12.52;37.00;102401.33;1625441;87;21031;-68
2022/03/22 09:38:14;;;;;;;7.60;5.42;;;;;;;12.64;36.75;102403.65;1626363;87;21205;-68
2022/03/22 09:40:42;;;;;;;8.75;5.35;;;;;;;12.72;36.49;102399.37;1625375;88;21024;-70
2022/03/22 09:43:10;;;;;;;10.58;5.58;;;;;;;12.76;36.09;102392.72;1623755;88;21571;-68
2022/03/22 09:45:42;;;;;;;11.03;5.72;;;;;;;12.76;36.02;102395.40;1628107;88;21079;-71
2022/03/22 09:48:10;;;;;;;9.15;7.00;;;;;;;12.75;35.88;102384.34;1616714;88;21369;-69
2022/03/22 09:53:23;;;;;;;10.07;6.07;;;;;;;12.89;36.18;102382.47;1616144;87;21116;-68
2022/03/22 09:55:51;;;;;;;9.70;6.80;;;;;;;13.07;35.82;102381.61;1622215;87;21075;-73
2022/03/22 09:58:18;;;;;;;11.57;6.85;;;;;;;13.21;35.71;102379.22;1651499;85;21119;-71
2022/03/22 10:00:47;;;;;;;10.80;7.22;;;;;;;13.33;35.47;102374.98;1655544;84;21483;-68
2022/03/22 10:03:20;;;;;;;10.45;6.42;;;;;;;13.43;35.35;102370.38;1648966;85;21543;-67
2022/03/22 10:06:03;;;;;;;8.63;5.05;;;;;;;13.56;35.29;102373.95;1650143;85;21638;-72
2022/03/22 10:08:31;;;;;;;8.28;5.35;;;;;;;13.72;34.77;102371.38;1657176;85;21071;-70
2022/03/22 10:11:01;;;;;;;10.95;6.40;;;;;;;13.83;33.66;102365.73;1647139;85;21263;-70
2022/03/22 10:13:28;;;;;;;7.75;4.90;;;;;;;13.89;33.55;102362.91;1646649;85;21022;-70
2022/03/22 10:16:05;;;;;;;10.03;5.53;;;;;;;13.97;33.58;102366.13;1649939;86;21109;-68
2022/03/22 10:18:36;;;;;;;7.50;5.05;;;;;;;14.01;33.44;102360.30;1656192;85;21011;-70
2022/03/22 10:21:05;;;;;;;11.80;5.95;;;;;;;14.08;33.15;102351.59;1647862;85;21542;-71
2022/03/22 10:23:32;;;;;;;9.58;5.17;;;;;;;14.17;33.08;102347.44;1670341;83;21059;-69
2022/03/22 10:26:05;;;;;;;8.35;4.58;;;;;;;14.27;32.75;102349.97;1687624;84;21144;-71
2022/03/22 10:28:35;;;;;;;8.35;4.55;;;;;;;14.34;32.84;102346.15;1690073;84;21062;-72
2022/03/22 10:31:03;;;;;;;7.92;4.70;;;;;;;14.40;32.74;102347.66;1685305;84;21141;-68
2022/03/22 10:33:30;;;;;;;7.95;4.17;;;;;;;14.46;33.05;102342.64;1685038;84;21086;-70
2022/03/22 10:35:57;;;;;;;7.25;4.62;;;;;;;14.49;32.10;102341.81;1683987;84;22363;-74
2022/03/22 10:38:24;;;;;;;7.92;3.98;;;;;;;14.48;31.91;102334.75;1683444;84;21587;-69
2022/03/22 10:40:51;;;;;;;7.47;3.95;;;;;;;14.50;31.95;102327.89;1686160;84;21018;-70
2022/03/22 10:43:23;;;;;;;4.72;3.72;;;;;;;14.57;31.79;102327.09;1686037;84;22157;-73
2022/03/22 10:46:02;;;;;;;5.62;3.77;;;;;;;14.65;32.19;102330.79;1684888;84;21069;-69
2022/03/22 10:48:34;;;;;;;8.33;4.08;;;;;;;14.68;31.81;102323.76;1684830;84;21638;-77
2022/03/22 10:51:05;;;;;;;4.65;3.67;;;;;;;14.73;31.94;102330.30;1682903;84;21188;-69
2022/03/22 10:53:34;;;;;;;7.67;3.60;;;;;;;14.82;31.23;102319.55;1685711;84;21014;-69
2022/03/22 10:56:05;;;;;;;5.58;3.62;;;;;;;14.84;31.08;102315.69;1684169;84;21520;-70
2022/03/22 10:58:35;;;;;;;3.98;3.42;;;;;;;14.85;30.70;102312.52;1686850;84;21162;-69
2022/03/22 11:01:05;;;;;;;5.90;3.87;;;;;;;14.81;30.53;102305.30;1684325;84;21041;-73
2022/03/22 11:03:32;;;;;;;9.33;3.60;;;;;;;14.81;30.39;102308.50;1683795;84;21029;-70
2022/03/22 11:06:04;;;;;;;5.40;2.87;;;;;;;14.83;30.27;102301.94;1685707;84;21093;-71
2022/03/22 11:08:32;;;;;;;6.00;3.58;;;;;;;14.84;30.30;102294.72;1684709;84;21038;-68
2022/03/22 11:11:00;;;;;;;3.15;2.05;;;;;;;14.87;30.06;102289.85;1684951;84;21065;-69
2022/03/22 11:13:30;;;;;;;3.87;2.58;;;;;;;14.89;30.14;102286.49;1684746;84;21465;-69
2022/03/22 11:15:57;;;;;;;4.42;2.55;;;;;;;14.93;30.21;102283.80;1684759;84;21646;-67
2022/03/22 11:18:28;;;;;;;3.70;2.60;;;;;;;14.99;30.13;102279.59;1683980;84;21200;-70
2022/03/22 11:21:01;;;;;;;6.28;2.55;;;;;;;15.05;30.07;102282.11;1685411;84;21018;-69
2022/03/22 11:23:32;;;;;;;3.85;2.42;;;;;;;15.09;29.92;102275.41;1684444;84;21129;-69
2022/03/22 11:26:13;;;;;;;6.22;2.85;;;;;;;15.12;29.53;102273.19;1687377;84;21106;-71
2022/03/22 11:28:42;;;;;;;3.70;2.40;;;;;;;15.10;29.77;102271.70;1681666;84;21049;-72
2022/03/22 11:31:10;;;;;;;2.77;2.17;;;;;;;15.02;29.67;102265.02;1690399;84;21093;-71
2022/03/22 11:36:30;;;;;;;6.30;2.72;;;;;;;15.02;29.52;102269.04;1687000;84;21074;-69
2022/03/22 11:39:01;;;;;;;4.03;2.70;;;;;;;15.01;29.60;102264.66;1683854;84;21081;-72
2022/03/22 11:44:35;;;;;;;3.50;2.72;;;;;;;14.92;29.63;102246.41;1684690;84;21054;-70
2022/03/22 11:47:17;;;;;;;4.90;2.40;;;;;;;14.91;29.99;102247.40;1674599;84;21077;-70
2022/03/22 11:50:08;;;;;;;5.55;2.52;;;;;;;14.93;30.19;102260.97;1684046;84;21578;-71
2022/03/22 11:52:41;;;;;;;5.37;2.70;;;;;;;14.96;29.89;102247.73;1686839;84;21113;-71
2022/03/22 11:55:15;;;;;;;3.92;2.50;;;;;;;14.96;30.05;102250.42;1685809;84;21086;-68
2022/03/22 11:58:00;;;;;;;5.00;2.35;;;;;;;14.98;30.18;102244.37;1684021;84;21053;-70
2022/03/22 12:00:51;;;;;;;4.72;2.40;;;;;;;15.01;30.02;102241.32;1682184;83;21480;-69
2022/03/22 12:03:23;;;;;;;6.47;2.40;;;;;;;15.04;29.94;102238.30;1684553;84;21581;-71
2022/03/22 12:05:49;;;;;;;6.30;2.90;;;;;;;15.07;30.06;102233.95;1681313;84;21017;-69
2022/03/22 12:08:17;;;;;;;5.70;3.33;;;;;;;15.10;29.46;102236.27;1681651;84;21114;-69